sensor_id;sensor_type;location;lat;lon;timestamp;pressure;altitude;pressure_sealevel;temperature;humidity
54600;BME280;40500;51.084;16.958;2023-01-28T00:00:09;101029.41;;;0.14;100.00
54600;BME280;40500;51.084;16.958;2023-01-28T00:02:40;101035.63;;;0.14;100.00
54600;BME280;40500;51.084;16.958;2023-01-28T00:05:11;101040.79;;;0.14;100.00
54600;BME280;40500;51.084;16.958;2023-01-28T00:08:07;101039.70;;;0.13;100.00
54600;BME280;40500;51.084;16.958;2023-01-28T00:11:02;101039.34;;;0.12;100.00
54600;BME280;40500;51.084;16.958;2023-01-28T00:13:52;101045.02;;;0.12;100.00
54600;BME280;40500;51.084;16.958;2023-01-28T00:16:26;101044.12;;;0.11;100.00
54600;BME280;40500;51.084;16.958;2023-01-28T00:19:01;101041.32;;;0.10;100.00
54600;BME280;40500;51.084;16.958;2023-01-28T00:21:35;101039.66;;;0.07;100.00
54600;BME280;40500;51.084;16.958;2023-01-28T00:24:38;101043.27;;;0.07;100.00
54600;BME280;40500;51.084;16.958;2023-01-28T00:27:36;101039.79;;;0.06;100.00
54600;BME280;40500;51.084;16.958;2023-01-28T00:30:37;101033.73;;;0.05;100.00
54600;BME280;40500;51.084;16.958;2023-01-28T00:33:37;101030.77;;;0.04;100.00
54600;BME280;40500;51.084;16.958;2023-01-28T00:36:42;101030.52;;;0.02;100.00
54600;BME280;40500;51.084;16.958;2023-01-28T00:39:41;101033.63;;;0.03;100.00
54600;BME280;40500;51.084;16.958;2023-01-28T00:42:14;101029.66;;;0.02;100.00
54600;BME280;40500;51.084;16.958;2023-01-28T00:45:15;101023.30;;;0.03;100.00
54600;BME280;40500;51.084;16.958;2023-01-28T00:48:13;101024.98;;;0.02;100.00
54600;BME280;40500;51.084;16.958;2023-01-28T00:50:46;101026.04;;;0.02;100.00
54600;BME280;40500;51.084;16.958;2023-01-28T00:53:42;101016.88;;;0.01;100.00
54600;BME280;40500;51.084;16.958;2023-01-28T00:56:24;101015.13;;;-0.00;100.00
54600;BME280;40500;51.084;16.958;2023-01-28T00:59:25;101012.35;;;-0.01;100.00
54600;BME280;40500;51.084;16.958;2023-01-28T01:02:12;101014.59;;;-0.01;100.00
54600;BME280;40500;51.084;16.958;2023-01-28T01:04:59;101011.00;;;0.00;100.00
54600;BME280;40500;51.084;16.958;2023-01-28T01:07:34;101008.21;;;-0.01;100.00
54600;BME280;40500;51.084;16.958;2023-01-28T01:10:32;101015.80;;;-0.00;100.00
54600;BME280;40500;51.084;16.958;2023-01-28T01:13:27;101017.70;;;-0.01;100.00
54600;BME280;40500;51.084;16.958;2023-01-28T01:16:19;101022.69;;;-0.01;100.00
54600;BME280;40500;51.084;16.958;2023-01-28T01:19:12;101033.23;;;0.01;100.00
54600;BME280;40500;51.084;16.958;2023-01-28T01:22:04;101034.46;;;0.02;100.00
54600;BME280;40500;51.084;16.958;2023-01-28T01:25:00;101033.80;;;0.02;100.00
54600;BME280;40500;51.084;16.958;2023-01-28T01:27:56;101035.54;;;0.03;100.00
54600;BME280;40500;51.084;16.958;2023-01-28T01:30:49;101038.81;;;0.03;100.00
54600;BME280;40500;51.084;16.958;2023-01-28T01:33:22;101041.41;;;0.03;100.00
54600;BME280;40500;51.084;16.958;2023-01-28T01:36:16;101043.48;;;0.04;100.00
54600;BME280;40500;51.084;16.958;2023-01-28T01:38:56;101050.80;;;0.02;100.00
54600;BME280;40500;51.084;16.958;2023-01-28T01:41:30;101052.90;;;0.02;100.00
54600;BME280;40500;51.084;16.958;2023-01-28T01:44:55;101061.16;;;0.02;100.00
54600;BME280;40500;51.084;16.958;2023-01-28T01:47:40;101058.44;;;-0.03;100.00
54600;BME280;40500;51.084;16.958;2023-01-28T01:50:17;101060.23;;;-0.05;100.00
54600;BME280;40500;51.084;16.958;2023-01-28T01:53:14;101061.52;;;-0.07;100.00
54600;BME280;40500;51.084;16.958;2023-01-28T01:56:09;101065.81;;;-0.12;100.00
54600;BME280;40500;51.084;16.958;2023-01-28T01:58:46;101068.80;;;-0.15;100.00
54600;BME280;40500;51.084;16.958;2023-01-28T02:01:48;101070.92;;;-0.18;100.00
54600;BME280;40500;51.084;16.958;2023-01-28T02:04:24;101069.25;;;-0.21;100.00
54600;BME280;40500;51.084;16.958;2023-01-28T02:07:17;101071.11;;;-0.27;100.00
54600;BME280;40500;51.084;16.958;2023-01-28T02:09:53;101072.34;;;-0.30;100.00
54600;BME280;40500;51.084;16.958;2023-01-28T02:12:54;101073.40;;;-0.34;100.00
54600;BME280;40500;51.084;16.958;2023-01-28T02:15:31;101072.20;;;-0.34;100.00
54600;BME280;40500;51.084;16.958;2023-01-28T02:18:27;101076.01;;;-0.33;100.00
54600;BME280;40500;51.084;16.958;2023-01-28T02:21:17;101079.20;;;-0.35;100.00
54600;BME280;40500;51.084;16.958;2023-01-28T02:24:27;101076.88;;;-0.37;100.00
54600;BME280;40500;51.084;16.958;2023-01-28T02:27:32;101075.13;;;-0.38;100.00
54600;BME280;40500;51.084;16.958;2023-01-28T02:30:17;101078.67;;;-0.40;100.00
54600;BME280;40500;51.084;16.958;2023-01-28T02:32:56;101073.80;;;-0.42;100.00
54600;BME280;40500;51.084;16.958;2023-01-28T02:35:40;101077.46;;;-0.45;100.00
54600;BME280;40500;51.084;16.958;2023-01-28T02:38:44;101077.59;;;-0.46;100.00
54600;BME280;40500;51.084;16.958;2023-01-28T02:41:28;101081.35;;;-0.47;100.00
54600;BME280;40500;51.084;16.958;2023-01-28T02:44:03;101083.75;;;-0.47;100.00
54600;BME280;40500;51.084;16.958;2023-01-28T02:46:52;101081.15;;;-0.47;100.00
54600;BME280;40500;51.084;16.958;2023-01-28T02:49:44;101078.63;;;-0.50;100.00
54600;BME280;40500;51.084;16.958;2023-01-28T02:52:39;101084.15;;;-0.50;100.00
54600;BME280;40500;51.084;16.958;2023-01-28T02:55:42;101088.73;;;-0.51;100.00
54600;BME280;40500;51.084;16.958;2023-01-28T02:58:28;101084.23;;;-0.52;100.00
54600;BME280;40500;51.084;16.958;2023-01-28T03:01:12;101083.01;;;-0.52;100.00
54600;BME280;40500;51.084;16.958;2023-01-28T03:04:17;101084.79;;;-0.55;100.00
54600;BME280;40500;51.084;16.958;2023-01-28T03:07:17;101082.02;;;-0.55;100.00
54600;BME280;40500;51.084;16.958;2023-01-28T03:09:50;101085.59;;;-0.56;100.00
54600;BME280;40500;51.084;16.958;2023-01-28T03:12:32;101084.89;;;-0.56;100.00
54600;BME280;40500;51.084;16.958;2023-01-28T03:15:28;101090.96;;;-0.60;100.00
54600;BME280;40500;51.084;16.958;2023-01-28T03:18:46;101090.67;;;-0.63;100.00
54600;BME280;40500;51.084;16.958;2023-01-28T03:21:39;101095.88;;;-0.66;100.00
54600;BME280;40500;51.084;16.958;2023-01-28T03:24:39;101091.09;;;-0.69;100.00
54600;BME280;40500;51.084;16.958;2023-01-28T03:27:31;101088.26;;;-0.71;100.00
54600;BME280;40500;51.084;16.958;2023-01-28T03:30:40;101091.27;;;-0.74;100.00
54600;BME280;40500;51.084;16.958;2023-01-28T03:33:40;101091.02;;;-0.75;100.00
54600;BME280;40500;51.084;16.958;2023-01-28T03:36:31;101094.25;;;-0.76;100.00
54600;BME280;40500;51.084;16.958;2023-01-28T03:39:41;101089.79;;;-0.76;100.00
54600;BME280;40500;51.084;16.958;2023-01-28T03:42:21;101094.02;;;-0.77;100.00
54600;BME280;40500;51.084;16.958;2023-01-28T03:45:21;101091.48;;;-0.77;100.00
54600;BME280;40500;51.084;16.958;2023-01-28T03:48:08;101090.73;;;-0.78;100.00
54600;BME280;40500;51.084;16.958;2023-01-28T03:50:45;101090.16;;;-0.80;100.00
54600;BME280;40500;51.084;16.958;2023-01-28T03:53:19;101093.11;;;-0.79;100.00
54600;BME280;40500;51.084;16.958;2023-01-28T03:56:14;101091.77;;;-0.82;100.00
54600;BME280;40500;51.084;16.958;2023-01-28T03:58:49;101099.14;;;-0.83;100.00
54600;BME280;40500;51.084;16.958;2023-01-28T04:01:29;101096.27;;;-0.82;100.00
54600;BME280;40500;51.084;16.958;2023-01-28T04:04:05;101097.28;;;-0.82;100.00
54600;BME280;40500;51.084;16.958;2023-01-28T04:07:13;101106.77;;;-0.82;100.00
54600;BME280;40500;51.084;16.958;2023-01-28T04:10:07;101106.58;;;-0.82;100.00
54600;BME280;40500;51.084;16.958;2023-01-28T04:13:07;101107.35;;;-0.84;100.00
54600;BME280;40500;51.084;16.958;2023-01-28T04:16:03;101109.29;;;-0.83;100.00
54600;BME280;40500;51.084;16.958;2023-01-28T04:18:47;101105.11;;;-0.84;100.00
54600;BME280;40500;51.084;16.958;2023-01-28T04:21:38;101107.59;;;-0.87;100.00
54600;BME280;40500;51.084;16.958;2023-01-28T04:24:13;101104.02;;;-0.86;100.00
54600;BME280;40500;51.084;16.958;2023-01-28T04:26:46;101107.85;;;-0.84;100.00
54600;BME280;40500;51.084;16.958;2023-01-28T04:29:38;101110.91;;;-0.85;100.00
54600;BME280;40500;51.084;16.958;2023-01-28T04:32:41;101113.67;;;-0.85;100.00
54600;BME280;40500;51.084;16.958;2023-01-28T04:35:43;101118.09;;;-0.86;100.00
54600;BME280;40500;51.084;16.958;2023-01-28T04:38:53;101119.77;;;-0.87;100.00
54600;BME280;40500;51.084;16.958;2023-01-28T04:41:49;101121.09;;;-0.88;100.00
54600;BME280;40500;51.084;16.958;2023-01-28T04:44:49;101121.35;;;-0.90;100.00
54600;BME280;40500;51.084;16.958;2023-01-28T04:47:44;101124.80;;;-0.90;100.00
54600;BME280;40500;51.084;16.958;2023-01-28T04:50:49;101133.58;;;-0.90;100.00
54600;BME280;40500;51.084;16.958;2023-01-28T04:53:31;101131.36;;;-0.90;100.00
54600;BME280;40500;51.084;16.958;2023-01-28T04:56:09;101133.86;;;-0.88;100.00
54600;BME280;40500;51.084;16.958;2023-01-28T04:58:42;101133.15;;;-0.88;100.00
54600;BME280;40500;51.084;16.958;2023-01-28T05:01:17;101136.53;;;-0.89;100.00
54600;BME280;40500;51.084;16.958;2023-01-28T05:04:09;101136.92;;;-0.92;100.00
54600;BME280;40500;51.084;16.958;2023-01-28T05:06:42;101140.48;;;-0.93;100.00
54600;BME280;40500;51.084;16.958;2023-01-28T05:09:44;101139.88;;;-0.91;100.00
54600;BME280;40500;51.084;16.958;2023-01-28T05:12:20;101139.37;;;-0.95;100.00
54600;BME280;40500;51.084;16.958;2023-01-28T05:14:55;101140.30;;;-0.97;100.00
54600;BME280;40500;51.084;16.958;2023-01-28T05:17:29;101143.23;;;-0.97;100.00
54600;BME280;40500;51.084;16.958;2023-01-28T05:20:01;101145.30;;;-0.97;100.00
54600;BME280;40500;51.084;16.958;2023-01-28T05:22:54;101145.87;;;-0.96;100.00
54600;BME280;40500;51.084;16.958;2023-01-28T05:25:37;101150.82;;;-0.97;100.00
54600;BME280;40500;51.084;16.958;2023-01-28T05:28:09;101150.51;;;-1.00;100.00
54600;BME280;40500;51.084;16.958;2023-01-28T05:30:40;101152.90;;;-1.00;100.00
54600;BME280;40500;51.084;16.958;2023-01-28T05:33:12;101154.98;;;-1.00;100.00
54600;BME280;40500;51.084;16.958;2023-01-28T05:35:45;101157.48;;;-1.01;100.00
54600;BME280;40500;51.084;16.958;2023-01-28T05:38:29;101165.47;;;-1.00;100.00
54600;BME280;40500;51.084;16.958;2023-01-28T05:41:25;101161.73;;;-0.99;100.00
54600;BME280;40500;51.084;16.958;2023-01-28T05:44:05;101157.43;;;-0.99;100.00
54600;BME280;40500;51.084;16.958;2023-01-28T05:46:51;101161.17;;;-1.00;100.00
54600;BME280;40500;51.084;16.958;2023-01-28T05:49:49;101162.59;;;-1.03;100.00
54600;BME280;40500;51.084;16.958;2023-01-28T05:52:42;101163.66;;;-1.06;100.00
54600;BME280;40500;51.084;16.958;2023-01-28T05:55:26;101161.71;;;-1.07;100.00
54600;BME280;40500;51.084;16.958;2023-01-28T05:57:58;101167.29;;;-1.06;100.00
54600;BME280;40500;51.084;16.958;2023-01-28T06:00:40;101168.13;;;-1.06;100.00
54600;BME280;40500;51.084;16.958;2023-01-28T06:03:16;101166.94;;;-1.06;100.00
54600;BME280;40500;51.084;16.958;2023-01-28T06:06:12;101167.23;;;-1.07;100.00
54600;BME280;40500;51.084;16.958;2023-01-28T06:09:05;101172.39;;;-1.07;100.00
54600;BME280;40500;51.084;16.958;2023-01-28T06:11:43;101180.70;;;-1.05;100.00
54600;BME280;40500;51.084;16.958;2023-01-28T06:14:39;101176.39;;;-1.06;100.00
54600;BME280;40500;51.084;16.958;2023-01-28T06:17:30;101180.98;;;-1.07;100.00
54600;BME280;40500;51.084;16.958;2023-01-28T06:20:15;101184.33;;;-1.09;100.00
54600;BME280;40500;51.084;16.958;2023-01-28T06:23:15;101179.59;;;-1.11;100.00
54600;BME280;40500;51.084;16.958;2023-01-28T06:25:56;101186.48;;;-1.11;100.00
54600;BME280;40500;51.084;16.958;2023-01-28T06:29:03;101181.55;;;-1.09;100.00
54600;BME280;40500;51.084;16.958;2023-01-28T06:31:41;101187.56;;;-1.10;100.00
54600;BME280;40500;51.084;16.958;2023-01-28T06:34:15;101183.04;;;-1.11;100.00
54600;BME280;40500;51.084;16.958;2023-01-28T06:37:22;101189.05;;;-1.11;100.00
54600;BME280;40500;51.084;16.958;2023-01-28T06:40:21;101193.70;;;-1.11;100.00
54600;BME280;40500;51.084;16.958;2023-01-28T06:42:56;101193.92;;;-1.09;100.00
54600;BME280;40500;51.084;16.958;2023-01-28T06:45:28;101196.69;;;-1.09;100.00
54600;BME280;40500;51.084;16.958;2023-01-28T06:48:05;101197.23;;;-1.09;100.00
54600;BME280;40500;51.084;16.958;2023-01-28T06:50:38;101205.30;;;-1.09;100.00
54600;BME280;40500;51.084;16.958;2023-01-28T06:53:08;101209.35;;;-1.07;100.00
54600;BME280;40500;51.084;16.958;2023-01-28T06:56:00;101212.27;;;-1.07;100.00
54600;BME280;40500;51.084;16.958;2023-01-28T06:58:36;101212.85;;;-1.09;100.00
54600;BME280;40500;51.084;16.958;2023-01-28T07:01:28;101218.88;;;-1.09;100.00
54600;BME280;40500;51.084;16.958;2023-01-28T07:04:24;101218.00;;;-1.09;100.00
54600;BME280;40500;51.084;16.958;2023-01-28T07:06:59;101222.40;;;-1.07;100.00
54600;BME280;40500;51.084;16.958;2023-01-28T07:09:35;101226.06;;;-1.06;100.00
54600;BME280;40500;51.084;16.958;2023-01-28T07:12:31;101229.20;;;-1.05;100.00
54600;BME280;40500;51.084;16.958;2023-01-28T07:15:24;101233.14;;;-1.06;100.00
54600;BME280;40500;51.084;16.958;2023-01-28T07:17:57;101237.77;;;-1.05;100.00
54600;BME280;40500;51.084;16.958;2023-01-28T07:20:32;101244.02;;;-1.04;100.00
54600;BME280;40500;51.084;16.958;2023-01-28T07:23:24;101242.16;;;-1.03;100.00
54600;BME280;40500;51.084;16.958;2023-01-28T07:26:05;101245.89;;;-1.04;100.00
54600;BME280;40500;51.084;16.958;2023-01-28T07:28:35;101254.45;;;-1.02;100.00
54600;BME280;40500;51.084;16.958;2023-01-28T07:31:05;101254.36;;;-0.99;100.00
54600;BME280;40500;51.084;16.958;2023-01-28T07:33:36;101255.23;;;-0.99;100.00
54600;BME280;40500;51.084;16.958;2023-01-28T07:36:09;101251.61;;;-1.00;100.00
54600;BME280;40500;51.084;16.958;2023-01-28T07:38:40;101253.11;;;-1.00;100.00
54600;BME280;40500;51.084;16.958;2023-01-28T07:41:10;101250.66;;;-1.02;100.00
54600;BME280;40500;51.084;16.958;2023-01-28T07:43:40;101253.94;;;-1.01;100.00
54600;BME280;40500;51.084;16.958;2023-01-28T07:46:11;101249.49;;;-1.01;100.00
54600;BME280;40500;51.084;16.958;2023-01-28T07:48:41;101247.79;;;-1.00;100.00
54600;BME280;40500;51.084;16.958;2023-01-28T07:51:11;101243.23;;;-0.99;100.00
54600;BME280;40500;51.084;16.958;2023-01-28T07:53:42;101244.65;;;-0.97;100.00
54600;BME280;40500;51.084;16.958;2023-01-28T07:56:13;101242.41;;;-0.98;100.00
54600;BME280;40500;51.084;16.958;2023-01-28T07:58:43;101240.14;;;-0.99;100.00
54600;BME280;40500;51.084;16.958;2023-01-28T08:01:14;101244.70;;;-1.00;100.00
54600;BME280;40500;51.084;16.958;2023-01-28T08:03:44;101246.58;;;-1.00;100.00
54600;BME280;40500;51.084;16.958;2023-01-28T08:06:15;101252.82;;;-1.00;100.00
54600;BME280;40500;51.084;16.958;2023-01-28T08:08:47;101252.52;;;-0.98;100.00
54600;BME280;40500;51.084;16.958;2023-01-28T08:11:17;101253.23;;;-0.98;100.00
54600;BME280;40500;51.084;16.958;2023-01-28T08:13:51;101259.80;;;-0.97;100.00
54600;BME280;40500;51.084;16.958;2023-01-28T08:16:21;101259.58;;;-0.98;100.00
54600;BME280;40500;51.084;16.958;2023-01-28T08:18:52;101261.18;;;-0.97;100.00
54600;BME280;40500;51.084;16.958;2023-01-28T08:21:25;101265.72;;;-0.95;100.00
54600;BME280;40500;51.084;16.958;2023-01-28T08:23:55;101269.59;;;-0.93;100.00
54600;BME280;40500;51.084;16.958;2023-01-28T08:26:26;101271.86;;;-0.93;100.00
54600;BME280;40500;51.084;16.958;2023-01-28T08:28:56;101269.46;;;-0.93;100.00
54600;BME280;40500;51.084;16.958;2023-01-28T08:31:27;101268.37;;;-0.94;100.00
54600;BME280;40500;51.084;16.958;2023-01-28T08:34:01;101266.24;;;-0.95;100.00
54600;BME280;40500;51.084;16.958;2023-01-28T08:36:31;101269.98;;;-0.96;100.00
54600;BME280;40500;51.084;16.958;2023-01-28T08:39:02;101273.64;;;-0.95;100.00
54600;BME280;40500;51.084;16.958;2023-01-28T08:41:34;101269.77;;;-0.93;100.00
54600;BME280;40500;51.084;16.958;2023-01-28T08:44:04;101269.02;;;-0.95;100.00
54600;BME280;40500;51.084;16.958;2023-01-28T08:46:34;101273.23;;;-0.97;100.00
54600;BME280;40500;51.084;16.958;2023-01-28T08:49:05;101273.37;;;-0.97;100.00
54600;BME280;40500;51.084;16.958;2023-01-28T08:51:36;101269.36;;;-0.95;100.00
54600;BME280;40500;51.084;16.958;2023-01-28T08:54:06;101269.28;;;-0.92;100.00
54600;BME280;40500;51.084;16.958;2023-01-28T08:56:37;101267.23;;;-0.92;100.00
54600;BME280;40500;51.084;16.958;2023-01-28T08:59:11;101273.48;;;-0.95;100.00
54600;BME280;40500;51.084;16.958;2023-01-28T09:01:41;101271.21;;;-0.96;100.00
54600;BME280;40500;51.084;16.958;2023-01-28T09:04:12;101274.05;;;-0.94;100.00
54600;BME280;40500;51.084;16.958;2023-01-28T09:06:42;101269.20;;;-0.94;100.00
54600;BME280;40500;51.084;16.958;2023-01-28T09:09:12;101271.55;;;-0.96;100.00
54600;BME280;40500;51.084;16.958;2023-01-28T09:11:43;101270.53;;;-0.95;100.00
54600;BME280;40500;51.084;16.958;2023-01-28T09:14:13;101270.29;;;-0.93;100.00
54600;BME280;40500;51.084;16.958;2023-01-28T09:16:44;101272.21;;;-0.89;100.00
54600;BME280;40500;51.084;16.958;2023-01-28T09:19:14;101279.75;;;-0.86;100.00
54600;BME280;40500;51.084;16.958;2023-01-28T09:21:44;101281.42;;;-0.83;100.00
54600;BME280;40500;51.084;16.958;2023-01-28T09:24:15;101283.40;;;-0.81;100.00
54600;BME280;40500;51.084;16.958;2023-01-28T09:26:48;101282.70;;;-0.77;100.00
54600;BME280;40500;51.084;16.958;2023-01-28T09:29:19;101284.52;;;-0.74;100.00
54600;BME280;40500;51.084;16.958;2023-01-28T09:31:49;101287.27;;;-0.74;100.00
54600;BME280;40500;51.084;16.958;2023-01-28T09:34:20;101283.13;;;-0.79;100.00
54600;BME280;40500;51.084;16.958;2023-01-28T09:36:50;101286.90;;;-0.83;100.00
54600;BME280;40500;51.084;16.958;2023-01-28T09:39:20;101293.98;;;-0.86;100.00
54600;BME280;40500;51.084;16.958;2023-01-28T09:41:54;101295.90;;;-0.89;100.00
54600;BME280;40500;51.084;16.958;2023-01-28T09:44:40;101298.39;;;-0.91;100.00
54600;BME280;40500;51.084;16.958;2023-01-28T09:47:21;101302.79;;;-0.93;100.00
54600;BME280;40500;51.084;16.958;2023-01-28T09:49:51;101299.66;;;-0.94;100.00
54600;BME280;40500;51.084;16.958;2023-01-28T09:52:26;101303.77;;;-0.98;100.00
54600;BME280;40500;51.084;16.958;2023-01-28T09:55:03;101306.62;;;-0.99;100.00
54600;BME280;40500;51.084;16.958;2023-01-28T09:57:38;101306.85;;;-0.98;100.00
54600;BME280;40500;51.084;16.958;2023-01-28T10:00:15;101304.96;;;-0.98;100.00
54600;BME280;40500;51.084;16.958;2023-01-28T10:03:07;101307.61;;;-1.00;100.00
54600;BME280;40500;51.084;16.958;2023-01-28T10:05:48;101299.94;;;-0.99;100.00
54600;BME280;40500;51.084;16.958;2023-01-28T10:08:42;101299.63;;;-0.98;100.00
54600;BME280;40500;51.084;16.958;2023-01-28T10:11:24;101304.48;;;-0.98;100.00
54600;BME280;40500;51.084;16.958;2023-01-28T10:14:05;101307.60;;;-0.97;100.00
54600;BME280;40500;51.084;16.958;2023-01-28T10:16:42;101306.91;;;-0.97;100.00
54600;BME280;40500;51.084;16.958;2023-01-28T10:19:20;101304.45;;;-0.98;100.00
54600;BME280;40500;51.084;16.958;2023-01-28T10:21:56;101302.39;;;-1.01;100.00
54600;BME280;40500;51.084;16.958;2023-01-28T10:24:32;101304.98;;;-0.98;100.00
54600;BME280;40500;51.084;16.958;2023-01-28T10:27:10;101296.40;;;-0.94;100.00
54600;BME280;40500;51.084;16.958;2023-01-28T10:29:41;101297.44;;;-0.93;100.00
54600;BME280;40500;51.084;16.958;2023-01-28T10:32:25;101295.47;;;-0.95;100.00
54600;BME280;40500;51.084;16.958;2023-01-28T10:34:57;101300.38;;;-0.93;100.00
54600;BME280;40500;51.084;16.958;2023-01-28T10:37:32;101302.48;;;-0.92;100.00
54600;BME280;40500;51.084;16.958;2023-01-28T10:40:06;101306.11;;;-0.96;100.00
54600;BME280;40500;51.084;16.958;2023-01-28T10:42:38;101300.02;;;-0.97;100.00
54600;BME280;40500;51.084;16.958;2023-01-28T10:45:16;101302.60;;;-0.97;100.00
54600;BME280;40500;51.084;16.958;2023-01-28T10:47:52;101304.20;;;-0.96;100.00
54600;BME280;40500;51.084;16.958;2023-01-28T10:50:25;101304.48;;;-0.94;100.00
54600;BME280;40500;51.084;16.958;2023-01-28T10:52:58;101303.56;;;-0.95;100.00
54600;BME280;40500;51.084;16.958;2023-01-28T10:55:47;101303.02;;;-0.96;100.00
54600;BME280;40500;51.084;16.958;2023-01-28T10:58:21;101306.15;;;-0.95;100.00
54600;BME280;40500;51.084;16.958;2023-01-28T11:00:55;101305.58;;;-0.96;100.00
54600;BME280;40500;51.084;16.958;2023-01-28T11:03:26;101302.73;;;-0.98;100.00
54600;BME280;40500;51.084;16.958;2023-01-28T11:05:59;101310.27;;;-0.99;100.00
54600;BME280;40500;51.084;16.958;2023-01-28T11:08:30;101311.66;;;-0.98;100.00
54600;BME280;40500;51.084;16.958;2023-01-28T11:11:01;101308.83;;;-0.96;100.00
54600;BME280;40500;51.084;16.958;2023-01-28T11:13:31;101308.23;;;-0.94;100.00
54600;BME280;40500;51.084;16.958;2023-01-28T11:16:03;101312.63;;;-0.92;100.00
54600;BME280;40500;51.084;16.958;2023-01-28T11:18:37;101308.28;;;-0.89;100.00
54600;BME280;40500;51.084;16.958;2023-01-28T11:21:17;101307.70;;;-0.87;100.00
54600;BME280;40500;51.084;16.958;2023-01-28T11:23:52;101300.91;;;-0.85;100.00
54600;BME280;40500;51.084;16.958;2023-01-28T11:26:29;101305.38;;;-0.81;100.00
54600;BME280;40500;51.084;16.958;2023-01-28T11:29:01;101295.13;;;-0.79;100.00
54600;BME280;40500;51.084;16.958;2023-01-28T11:31:43;101289.84;;;-0.78;100.00
54600;BME280;40500;51.084;16.958;2023-01-28T11:34:16;101288.44;;;-0.79;100.00
54600;BME280;40500;51.084;16.958;2023-01-28T11:36:52;101293.50;;;-0.82;100.00
54600;BME280;40500;51.084;16.958;2023-01-28T11:39:24;101300.64;;;-0.83;100.00
54600;BME280;40500;51.084;16.958;2023-01-28T11:42:12;101302.06;;;-0.82;100.00
54600;BME280;40500;51.084;16.958;2023-01-28T11:44:45;101297.85;;;-0.81;100.00
54600;BME280;40500;51.084;16.958;2023-01-28T11:47:32;101294.85;;;-0.74;100.00
54600;BME280;40500;51.084;16.958;2023-01-28T11:50:17;101296.14;;;-0.68;100.00
54600;BME280;40500;51.084;16.958;2023-01-28T11:53:30;101298.93;;;-0.64;100.00
54600;BME280;40500;51.084;16.958;2023-01-28T11:56:22;101297.63;;;-0.62;100.00
54600;BME280;40500;51.084;16.958;2023-01-28T11:59:07;101299.11;;;-0.60;100.00
54600;BME280;40500;51.084;16.958;2023-01-28T12:01:50;101302.00;;;-0.60;100.00
54600;BME280;40500;51.084;16.958;2023-01-28T12:04:40;101300.25;;;-0.61;100.00
54600;BME280;40500;51.084;16.958;2023-01-28T12:07:25;101295.37;;;-0.59;100.00
54600;BME280;40500;51.084;16.958;2023-01-28T12:10:04;101291.41;;;-0.58;100.00
54600;BME280;40500;51.084;16.958;2023-01-28T12:13:03;101290.42;;;-0.57;100.00
54600;BME280;40500;51.084;16.958;2023-01-28T12:16:01;101288.05;;;-0.56;100.00
54600;BME280;40500;51.084;16.958;2023-01-28T12:21:44;101285.88;;;-0.64;100.00
54600;BME280;40500;51.084;16.958;2023-01-28T12:24:28;101290.10;;;-0.69;100.00
54600;BME280;40500;51.084;16.958;2023-01-28T12:27:09;101299.45;;;-0.72;100.00
54600;BME280;40500;51.084;16.958;2023-01-28T12:29:53;101293.26;;;-0.75;100.00
54600;BME280;40500;51.084;16.958;2023-01-28T12:32:42;101291.35;;;-0.80;100.00
54600;BME280;40500;51.084;16.958;2023-01-28T12:35:23;101292.20;;;-0.80;100.00
54600;BME280;40500;51.084;16.958;2023-01-28T12:38:06;101290.32;;;-0.75;100.00
54600;BME280;40500;51.084;16.958;2023-01-28T12:40:49;101286.16;;;-0.76;100.00
54600;BME280;40500;51.084;16.958;2023-01-28T12:43:30;101286.83;;;-0.81;100.00
54600;BME280;40500;51.084;16.958;2023-01-28T12:46:11;101285.84;;;-0.84;100.00
54600;BME280;40500;51.084;16.958;2023-01-28T12:48:48;101290.66;;;-0.88;100.00
54600;BME280;40500;51.084;16.958;2023-01-28T12:51:26;101290.81;;;-0.88;100.00
54600;BME280;40500;51.084;16.958;2023-01-28T12:54:01;101302.89;;;-0.91;100.00
54600;BME280;40500;51.084;16.958;2023-01-28T12:56:38;101303.55;;;-0.95;100.00
54600;BME280;40500;51.084;16.958;2023-01-28T12:59:13;101303.88;;;-0.95;100.00
54600;BME280;40500;51.084;16.958;2023-01-28T13:01:48;101300.31;;;-0.99;100.00
54600;BME280;40500;51.084;16.958;2023-01-28T13:04:24;101301.61;;;-1.04;100.00
54600;BME280;40500;51.084;16.958;2023-01-28T13:06:59;101303.17;;;-1.07;100.00
54600;BME280;40500;51.084;16.958;2023-01-28T13:09:34;101305.55;;;-1.08;100.00
54600;BME280;40500;51.084;16.958;2023-01-28T13:12:08;101307.35;;;-1.10;100.00
54600;BME280;40500;51.084;16.958;2023-01-28T13:14:42;101303.63;;;-1.12;100.00
54600;BME280;40500;51.084;16.958;2023-01-28T13:17:26;101301.33;;;-1.14;100.00
54600;BME280;40500;51.084;16.958;2023-01-28T13:19:57;101298.86;;;-1.15;100.00
54600;BME280;40500;51.084;16.958;2023-01-28T13:22:30;101298.89;;;-1.14;100.00
54600;BME280;40500;51.084;16.958;2023-01-28T13:25:22;101297.10;;;-1.16;100.00
54600;BME280;40500;51.084;16.958;2023-01-28T13:27:58;101301.69;;;-1.17;100.00
54600;BME280;40500;51.084;16.958;2023-01-28T13:30:31;101302.43;;;-1.16;100.00
54600;BME280;40500;51.084;16.958;2023-01-28T13:33:04;101302.05;;;-1.17;100.00
54600;BME280;40500;51.084;16.958;2023-01-28T13:35:37;101301.22;;;-1.16;100.00
54600;BME280;40500;51.084;16.958;2023-01-28T13:38:12;101303.98;;;-1.16;100.00
54600;BME280;40500;51.084;16.958;2023-01-28T13:40:54;101308.67;;;-1.18;100.00
54600;BME280;40500;51.084;16.958;2023-01-28T13:43:34;101306.92;;;-1.20;100.00
54600;BME280;40500;51.084;16.958;2023-01-28T13:46:08;101311.81;;;-1.22;100.00
54600;BME280;40500;51.084;16.958;2023-01-28T13:48:47;101316.48;;;-1.21;100.00